Date,TemperatureHighF,TemperatureAvgF,TemperatureLowF,DewpointHighF,DewpointAvgF,DewpointLowF,HumidityHigh,HumidityAvg,HumidityLow,PressureMaxIn,PressureMinIn,WindSpeedMaxMPH,WindSpeedAvgMPH,GustSpeedMaxMPH,PrecipitationSumIn
2014-1-1,46,38,30,35,30,26,92,73,57,30.29,29.98,7,4,13,0.01
2014-1-2,36,22,11,34,18,8,94,86,76,30.48,29.94,4,2,19,0.00
2014-1-3,26,17,5,16,10,3,91,76,57,30.58,30.20,11,5,20,0.00
2014-1-4,42,33,22,26,20,14,73,57,45,30.20,30.01,14,7,23,0.00
2014-1-5,38,27,2,35,25,-1,97,91,60,30.22,29.62,6,3,15,1.35
2014-1-6,2,-3,-8,-1,-10,-13,85,72,62,30.58,30.23,10,3,20,0.00
2014-1-7,19,14,-2,10,4,-7,79,66,55,30.58,30.36,10,6,18,0.00
2014-1-8,34,27,18,24,18,10,86,71,59,30.48,30.37,7,3,16,0.00
2014-1-9,36,31,28,31,28,24,97,89,67,30.48,30.22,8,3,13,0.07
2014-1-10,47,41,33,47,39,31,98,94,90,30.22,29.62,12,6,21,0.65
2014-1-11,48,41,36,47,38,32,98,88,78,29.92,29.55,10,4,17,0.01
2014-1-12,51,41,30,38,33,28,93,74,56,30.06,29.82,14,6,24,0.00
2014-1-13,56,48,35,48,39,32,93,72,55,29.87,29.68,12,5,21,0.00
2014-1-14,51,36,28,36,30,16,97,81,50,30.06,29.81,11,2,22,0.00
2014-1-15,29,25,20,22,17,14,85,71,60,30.19,30.06,6,2,15,0.00
2014-1-16,41,32,20,33,24,17,89,76,58,30.08,29.74,11,5,19,0.00
2014-1-17,34,20,16,30,14,7,88,75,61,30.15,29.80,10,3,20,0.00
2014-1-18,37,27,14,33,20,11,93,76,47,30.12,29.75,15,5,29,0.00
2014-1-19,43,33,24,32,24,19,92,71,49,30.10,29.81,12,6,21,0.00
2014-1-20,49,40,35,35,31,26,88,69,58,29.96,29.80,8,2,15,0.00
2014-1-21,35,18,6,32,14,2,95,81,66,30.32,29.84,6,2,19,0.01
2014-1-22,26,16,4,19,10,1,89,78,69,30.30,30.08,9,4,17,0.00
2014-1-23,19,8,1,11,0,-5,85,71,55,30.77,30.27,5,2,15,0.00
2014-1-24,27,15,1,10,3,-2,87,61,40,30.76,29.90,14,7,25,0.00
2014-1-25,45,31,19,27,13,4,58,47,29,30.01,29.71,14,5,28,0.00
2014-1-26,56,40,20,33,22,4,73,50,37,29.97,29.60,14,6,26,0.00
2014-1-27,32,14,4,25,0,-5,74,53,38,30.53,29.86,8,2,22,0.00
2014-1-28,17,8,1,-2,-6,-8,68,54,34,30.57,30.42,4,1,11,0.00
2014-1-29,29,17,4,7,2,-4,72,53,32,30.45,30.27,8,4,16,0.00
2014-1-30,40,29,17,12,9,6,65,44,28,30.26,29.93,17,8,26,0.00
2014-1-31,43,37,30,35,19,9,97,53,32,30.13,30.01,6,2,10,0.02
2014-2-1,55,43,33,49,40,32,97,87,67,30.02,29.82,12,4,22,0.94
2014-2-2,32,28,23,32,26,19,97,91,83,30.27,30.00,4,2,15,0.19
2014-2-3,31,24,15,22,18,13,90,81,64,30.40,30.24,7,2,12,0.00
2014-2-4,31,27,23,28,24,20,96,88,76,30.35,29.86,10,4,20,0.00
2014-2-5,28,23,17,28,21,13,96,90,85,30.53,29.83,4,1,12,0.00
2014-2-6,17,10,1,13,4,-4,86,75,56,30.62,30.50,3,1,10,0.00
2014-2-7,21,10,-2,8,1,-6,87,68,47,30.59,30.40,4,1,8,0.00
2014-2-8,29,22,15,26,18,8,93,83,73,30.40,30.18,6,3,10,0.00
2014-2-9,34,26,18,26,22,13,95,83,67,30.34,30.15,3,1,8,0.08
2014-2-10,18,12,4,13,4,-3,81,70,54,30.51,30.33,3,2,10,0.00
2014-2-11,20,10,-1,7,1,-6,79,66,51,30.57,30.40,5,2,12,0.00
2014-2-12,34,22,10,20,12,4,78,66,48,30.39,30.00,5,2,10,0.03
2014-2-13,42,29,13,26,18,9,85,65,48,30.02,29.73,8,3,14,0.01
2014-2-14,34,28,13,30,24,10,95,87,76,30.04,29.63,9,2,16,0.02
2014-2-15,27,18,4,23,13,2,92,82,69,30.24,30.04,7,2,11,0.00
2014-2-16,34,27,21,27,22,17,93,81,71,30.30,30.01,5,1,11,0.08
2014-2-17,40,32,21,38,29,17,97,86,72,30.24,29.78,12,6,25,0.45
2014-2-18,55,45,36,37,32,25,74,59,46,30.11,29.78,10,4,18,0.00
2014-2-19,54,46,38,44,36,32,90,69,52,30.06,29.77,7,3,13,0.00
2014-2-20,67,54,37,60,48,31,93,80,65,29.87,29.41,17,9,37,0.18
2014-2-21,52,42,35,31,26,18,80,55,30,29.98,29.75,25,7,25,0.00
2014-2-22,65,49,38,35,29,24,76,49,22,30.06,29.89,24,4,24,0.00
2014-2-23,39,33,21,33,24,15,92,70,45,30.32,30.00,18,3,18,0.00
2014-2-24,37,28,20,19,16,10,89,64,35,30.41,30.24,9,1,9,0.00
2014-2-25,34,28,23,21,19,14,84,68,56,30.29,30.21,13,1,13,0.00
2014-2-26,26,19,12,14,6,1,72,57,38,30.33,29.99,15,3,15,0.00
2014-2-27,29,23,17,16,7,0,75,51,31,30.19,29.94,16,3,16,0.00
2014-2-28,43,30,15,15,11,6,72,46,29,30.21,30.02,17,4,17,0.00
2014-3-1,49,41,32,35,28,14,84,61,38,30.20,30.06,12,1,12,0.00
2014-3-2,32,22,11,28,20,8,95,90,84,30.33,30.13,11,2,13,0.10
2014-3-3,23,16,10,15,10,6,90,79,59,30.46,30.28,11,2,11,0.00
2014-3-4,35,23,11,19,14,8,86,68,44,30.41,30.20,8,2,8,0.00
2014-3-5,40,31,22,26,22,16,84,69,53,30.30,30.19,12,3,12,0.14
2014-3-6,44,34,24,30,25,21,86,70,55,30.28,30.08,10,3,13,0.05
2014-3-7,54,42,27,40,32,23,86,68,53,30.08,29.96,10,2,10,0.00
2014-3-8,54,41,30,41,34,26,89,77,57,30.29,30.00,9,2,14,0.00
2014-3-9,49,37,26,34,30,24,95,76,53,30.35,30.07,12,2,12,0.00
2014-3-10,69,51,37,49,40,33,91,69,36,30.07,29.75,15,6,21,0.00
2014-3-11,76,60,49,55,47,37,83,65,25,29.76,29.45,18,4,18,0.00
2014-3-12,63,41,28,58,36,25,93,81,55,30.13,29.33,16,4,23,0.19
2014-3-13,51,38,23,32,28,21,96,69,47,30.27,30.03,16,4,16,0.00
2014-3-14,65,53,42,42,36,31,80,56,33,30.03,29.82,24,9,31,0.00
2014-3-15,66,53,38,40,34,26,90,54,24,30.09,29.96,20,3,20,0.00
2014-3-16,51,37,29,33,27,18,86,67,51,30.02,29.90,21,8,27,0.10
2014-3-17,46,33,25,31,24,16,86,70,56,30.00,29.83,12,2,12,0.00
2014-3-18,55,42,31,44,36,29,91,80,65,29.94,29.70,23,6,23,0.00
2014-3-19,55,48,32,47,40,29,88,74,53,30.15,29.72,24,6,24,0.00
2014-3-20,63,46,29,36,31,28,95,62,28,30.17,30.00,19,4,19,0.00
2014-3-21,72,56,43,41,34,31,64,45,25,30.02,29.82,23,6,23,0.00
2014-3-22,54,46,38,41,33,29,81,61,42,30.24,29.92,16,2,16,0.00
2014-3-23,44,37,28,30,22,16,74,57,34,30.40,30.24,15,2,15,0.00
2014-3-24,43,32,24,27,19,14,81,59,32,30.39,30.18,16,2,16,0.00
2014-3-25,41,32,22,30,21,12,95,65,36,30.32,30.10,22,2,22,0.02
2014-3-26,46,33,17,19,15,11,83,50,28,30.42,30.15,17,3,17,0.00
2014-3-27,61,50,38,49,33,17,85,54,37,30.15,29.72,35,12,35,0.03
2014-3-28,59,51,43,52,44,39,93,76,53,30.07,29.72,21,4,24,0.13
2014-3-29,45,41,32,41,37,31,96,87,72,30.26,29.97,17,2,17,0.55
2014-3-30,60,43,28,36,32,27,97,69,36,30.32,30.13,8,2,9,0.00
2014-3-31,71,57,42,42,36,32,72,48,25,30.14,29.87,18,6,21,0.01
2014-4-1,70,60,51,49,41,31,77,53,26,30.05,29.90,18,4,18,0.01
2014-4-2,58,53,46,54,47,42,92,81,69,30.14,29.91,24,6,24,0.36
2014-4-3,64,60,56,61,59,54,98,95,91,29.90,29.60,22,5,22,2.35
2014-4-4,59,50,43,58,44,33,98,79,60,30.11,29.54,27,6,27,0.90
2014-4-5,53,44,35,36,33,30,87,67,48,30.25,30.11,11,1,11,0.00
2014-4-6,58,50,42,39,36,32,78,60,43,30.16,29.86,12,3,15,0.00
2014-4-7,52,47,44,50,42,38,96,84,61,29.86,29.44,15,3,15,0.45
2014-4-8,63,51,42,50,43,38,95,75,48,29.94,29.73,15,2,15,0.02
2014-4-9,63,52,40,43,37,32,82,59,33,30.12,29.95,12,3,14,0.00
2014-4-10,80,64,49,49,44,37,69,49,31,30.04,29.81,30,8,30,0.00
2014-4-11,73,64,53,52,40,28,83,44,20,30.06,29.92,8,2,10,0.00
2014-4-12,80,68,55,58,54,38,91,63,43,30.06,29.80,27,7,27,0.00
2014-4-13,74,69,63,61,58,55,92,68,58,29.86,29.61,21,8,25,0.33
2014-4-14,63,51,36,60,49,33,95,92,85,29.99,29.56,19,5,25,0.51
2014-4-15,47,38,31,34,27,21,94,65,38,30.27,29.99,17,2,17,0.01
2014-4-16,53,44,34,31,27,23,70,53,37,30.36,30.17,15,6,22,0.00
2014-4-17,68,56,45,42,37,30,60,48,32,30.31,30.18,19,4,19,0.00
2014-4-18,73,62,50,47,42,38,68,49,34,30.28,30.17,11,1,11,0.00
2014-4-19,74,63,49,48,41,35,70,46,25,30.28,30.17,16,4,16,0.00
2014-4-20,78,66,54,46,42,38,56,41,27,30.22,30.06,8,2,11,0.00
2014-4-21,77,66,59,59,51,42,89,61,43,30.06,29.86,15,2,15,0.01
2014-4-22,70,62,51,59,48,35,97,64,31,29.97,29.83,12,1,12,0.00
2014-4-23,64,55,44,38,34,29,74,48,28,30.15,29.97,12,3,18,0.00
2014-4-24,77,63,50,58,42,35,94,48,28,30.00,29.63,23,6,23,0.17
2014-4-25,73,63,54,59,49,40,97,66,31,29.93,29.59,15,2,15,0.13
2014-4-26,80,68,54,51,46,40,65,47,25,29.95,29.83,11,3,16,0.00
2014-4-27,78,69,62,66,57,47,89,68,48,29.86,29.62,37,6,37,0.20
2014-4-28,69,64,60,62,61,57,97,90,75,29.73,29.46,32,7,32,2.28
2014-4-29,70,61,51,57,50,41,97,71,36,29.75,29.52,31,6,31,0.01
2014-4-30,55,50,44,48,43,38,88,77,62,29.95,29.75,16,2,16,0.00
2014-5-1,57,50,44,43,40,38,84,69,51,29.97,29.90,26,5,26,0.00
2014-5-2,60,51,42,45,42,39,92,72,51,29.97,29.88,16,3,16,0.00
2014-5-3,73,60,47,48,44,39,86,58,31,29.95,29.85,18,2,18,0.00
2014-5-4,79,71,58,56,51,44,71,51,39,29.99,29.85,15,3,15,0.00
2014-5-5,87,73,56,59,52,46,74,51,35,29.87,29.71,13,5,15,0.00
2014-5-6,86,74,62,64,56,49,73,53,40,29.83,29.74,16,3,16,0.00
2014-5-7,84,75,66,63,58,52,71,56,42,29.89,29.80,23,7,24,0.00
2014-5-8,84,76,66,67,63,59,93,66,50,29.98,29.89,30,7,30,0.06
2014-5-9,77,68,61,66,63,58,95,86,64,29.92,29.81,22,4,22,0.22
2014-5-10,82,71,64,69,64,59,96,79,47,29.95,29.88,16,3,16,0.02
2014-5-11,85,72,63,72,67,59,94,84,61,30.03,29.89,15,4,15,0.34
2014-5-12,82,75,71,74,69,67,88,83,71,30.03,29.87,18,5,18,0.00
2014-5-13,77,68,55,69,64,53,96,88,74,30.14,29.90,15,3,15,0.62
2014-5-14,55,52,47,53,50,46,97,96,92,30.14,29.86,14,2,20,1.45
2014-5-15,63,52,46,50,46,44,97,83,51,30.08,29.93,9,2,19,0.10
2014-5-16,55,49,44,47,42,37,98,78,53,30.12,30.00,20,4,20,0.00
2014-5-17,62,52,38,45,39,36,97,66,39,30.25,30.13,7,1,11,0.01
2014-5-18,66,56,46,44,40,36,81,57,38,30.30,30.19,13,2,13,0.00
2014-5-19,76,65,50,61,50,42,76,61,44,30.24,29.98,19,6,19,0.00
2014-5-20,83,74,65,67,63,61,88,68,51,30.01,29.88,21,6,21,0.00
2014-5-21,86,76,67,71,66,61,85,72,57,29.98,29.86,22,4,22,0.00
2014-5-22,84,75,68,71,64,56,94,69,44,30.06,29.93,6,1,10,0.00
2014-5-23,81,70,61,59,55,51,82,60,36,30.13,30.04,9,2,10,0.00
2014-5-24,82,71,60,56,52,48,78,53,34,30.17,30.05,13,3,13,0.00
2014-5-25,80,72,65,62,57,53,71,61,49,30.11,30.02,16,3,16,0.00
2014-5-26,88,75,64,70,64,58,95,72,49,30.09,29.97,15,2,22,0.02
2014-5-27,87,74,66,72,66,62,96,81,44,30.02,29.92,20,2,35,0.14
2014-5-28,84,74,65,70,66,64,97,78,55,29.99,29.89,12,1,12,0.00
2014-5-29,86,75,68,71,68,65,95,81,50,30.02,29.92,9,1,9,0.00
2014-5-30,86,74,67,74,69,66,96,85,56,30.06,29.99,12,2,12,0.04
2014-5-31,87,77,70,72,67,58,94,72,50,30.10,29.99,13,4,14,0.00
2014-6-1,88,74,68,76,66,58,97,77,57,30.06,29.98,16,3,28,1.03
2014-6-2,79,74,71,73,70,68,96,90,79,30.02,29.93,14,6,17,0.67
2014-6-3,86,76,71,76,72,69,96,86,65,30.01,29.86,12,2,12,0.14
2014-6-4,85,75,69,76,71,64,98,90,68,29.88,29.69,27,4,27,0.48
2014-6-5,74,68,63,68,63,60,97,85,70,29.95,29.78,13,2,13,0.00
2014-6-6,82,72,62,68,64,61,97,78,56,29.97,29.89,10,1,10,0.00
2014-6-7,82,74,65,72,65,60,95,76,57,29.98,29.72,17,4,17,0.26
2014-6-8,78,71,64,68,63,60,96,78,60,29.96,29.72,19,2,19,0.00
2014-6-9,74,69,65,66,63,60,95,82,66,29.96,29.77,15,3,15,0.20
2014-6-10,75,69,66,70,67,64,97,93,81,29.78,29.67,15,4,15,1.53
2014-6-11,79,69,64,69,66,62,98,89,62,29.80,29.69,14,2,14,0.07
2014-6-12,84,72,62,69,65,61,98,80,52,29.88,29.79,12,1,12,0.00
2014-6-13,76,68,59,65,56,47,93,67,40,30.04,29.86,11,1,11,0.00
2014-6-14,78,68,54,55,50,46,84,55,38,30.13,29.97,14,3,14,0.00
2014-6-15,84,75,62,72,64,52,86,69,52,30.02,29.90,25,4,25,0.00
2014-6-16,91,81,72,75,71,69,92,73,51,30.10,29.97,14,3,14,0.01
2014-6-17,91,82,73,74,71,69,88,71,51,30.04,29.93,20,5,20,0.00
2014-6-18,91,83,73,76,73,70,91,73,55,30.03,29.94,18,4,18,0.00
2014-6-19,92,84,73,76,72,69,92,69,49,30.08,29.96,14,3,14,0.00
2014-6-20,90,81,73,76,72,68,91,75,54,30.00,29.89,13,2,13,0.02
2014-6-21,92,80,68,72,68,64,96,69,43,29.95,29.84,7,0,7,0.00
2014-6-22,87,78,69,73,69,66,92,76,55,29.92,29.81,10,1,10,0.00
2014-6-23,91,78,72,76,71,67,92,81,58,29.87,29.80,19,3,19,0.01
2014-6-24,80,74,71,73,71,68,97,89,76,29.91,29.83,19,2,19,0.22
2014-6-25,87,77,66,73,68,64,98,75,48,30.00,29.90,13,1,13,0.00
2014-6-26,89,77,68,73,68,64,93,75,49,30.01,29.93,17,1,17,0.00
2014-6-27,86,76,68,74,69,66,95,81,57,30.04,29.95,12,2,12,0.00
2014-6-28,87,79,70,74,71,69,97,79,60,30.07,29.97,16,4,16,0.00
2014-6-29,82,76,71,73,70,68,94,83,69,30.07,29.96,16,4,16,0.13
2014-6-30,91,81,72,79,74,69,95,81,62,29.96,29.74,15,4,16,0.00
2014-7-1,90,79,70,76,74,70,97,84,56,29.89,29.74,16,3,16,0.40
2014-7-2,80,72,61,72,64,57,98,78,50,30.05,29.87,15,2,15,0.01
2014-7-3,76,66,56,63,59,55,97,81,59,30.20,30.04,6,1,9,0.00
2014-7-4,80,70,59,63,56,49,97,65,37,30.29,30.20,13,1,13,0.00
2014-7-5,83,72,58,61,57,52,89,61,38,30.27,30.07,13,2,13,0.00
2014-7-6,86,75,62,70,64,58,91,70,56,30.08,29.90,17,4,17,0.00
2014-7-7,87,76,68,76,69,62,95,80,66,29.92,29.74,27,4,27,0.40
2014-7-8,86,77,70,73,69,64,92,77,55,29.91,29.74,25,4,25,0.03
2014-7-9,86,75,63,69,65,61,97,73,47,30.01,29.89,11,1,11,0.00
2014-7-10,86,75,63,65,61,55,91,64,38,30.12,30.01,7,1,11,0.00
2014-7-11,89,77,65,68,63,59,82,64,40,30.17,30.08,9,2,9,0.00
2014-7-12,88,78,71,77,71,66,90,80,67,30.13,29.98,16,3,16,0.00
2014-7-13,92,83,74,77,74,70,91,74,53,30.00,29.87,16,3,16,0.00
2014-7-14,86,74,67,75,70,66,97,89,63,29.91,29.80,16,2,16,0.44
2014-7-15,75,66,58,66,57,54,96,75,51,30.00,29.89,12,1,12,0.00
2014-7-16,78,66,53,60,56,52,98,73,47,30.04,29.99,12,0,12,0.00
2014-7-17,81,69,56,60,56,50,93,64,38,30.11,30.03,10,1,10,0.00
2014-7-18,80,70,63,63,58,54,88,68,46,30.12,30.02,12,3,12,0.00
2014-7-19,78,68,60,65,62,59,97,81,59,30.06,29.99,10,2,10,0.00
2014-7-20,84,71,58,67,62,57,97,74,47,30.07,29.98,8,0,8,0.00
2014-7-21,88,75,62,70,65,60,95,73,50,30.10,30.01,7,0,7,0.00
2014-7-22,92,79,66,73,69,64,96,75,49,30.08,29.97,10,1,10,0.00
2014-7-23,80,72,62,75,69,58,97,91,79,30.08,29.95,20,1,20,2.12
2014-7-24,79,67,54,64,59,52,94,76,50,30.08,30.00,16,1,16,0.00
2014-7-25,79,69,60,66,61,57,92,77,53,30.09,29.85,17,2,17,0.01
2014-7-26,92,77,65,80,70,61,95,82,66,29.98,29.80,13,3,13,0.62
2014-7-27,89,80,69,78,72,60,97,77,49,29.89,29.78,19,3,19,0.00
2014-7-28,79,70,59,66,60,54,93,74,56,30.08,29.89,14,1,14,0.00
2014-7-29,80,67,52,62,57,51,98,72,45,30.11,30.03,13,1,13,0.00
2014-7-30,82,70,58,66,61,56,96,74,44,30.09,30.02,12,1,12,0.00
2014-7-31,84,72,60,68,63,59,97,75,44,30.09,30.02,8,1,8,0.00
2014-8-1,86,74,62,70,64,60,97,75,43,30.07,30.00,11,1,11,0.00
2014-8-2,85,73,62,68,64,60,96,75,52,30.12,30.03,10,1,10,0.00
2014-8-3,86,75,62,71,64,60,96,71,47,30.15,30.04,8,1,8,0.00
2014-8-4,88,77,63,70,64,61,96,68,44,30.11,30.01,6,1,6,0.00
2014-8-5,86,75,68,74,68,61,93,79,61,30.06,29.96,11,1,11,0.26
2014-8-6,88,77,68,74,70,67,98,81,55,30.03,29.95,10,1,10,0.00
2014-8-7,81,74,70,73,70,67,96,88,75,30.01,29.90,12,3,12,0.36
2014-8-8,79,72,69,74,71,68,97,94,83,29.93,29.88,14,3,14,3.14
2014-8-9,83,73,70,76,71,69,99,94,78,29.96,29.90,8,1,8,0.01
2014-8-10,84,75,71,75,72,70,99,89,69,29.98,29.88,10,1,10,0.00
2014-8-11,85,76,68,75,71,68,99,87,66,29.92,29.81,14,1,14,0.00
2014-8-12,79,70,60,68,62,57,96,77,49,30.00,29.84,13,1,13,0.01
2014-8-13,81,69,56,64,59,55,98,73,45,30.08,29.99,8,0,8,0.00
2014-8-14,83,72,58,69,64,57,97,78,54,30.08,29.97,10,1,10,0.00
2014-8-15,84,73,62,70,65,59,95,78,54,30.07,29.95,10,2,10,0.00
2014-8-16,79,72,69,70,68,66,92,87,72,29.98,29.89,10,2,10,0.01
2014-8-17,76,72,69,74,70,68,98,95,87,29.89,29.81,16,2,16,3.28
2014-8-18,84,74,66,74,70,66,99,90,69,29.88,29.79,6,0,6,0.00
2014-8-19,89,78,68,79,74,67,99,88,67,29.83,29.75,13,1,13,0.01
2014-8-20,83,77,69,78,71,67,96,84,66,30.01,29.81,17,1,17,0.00
2014-8-21,93,81,71,80,75,68,96,83,63,30.03,29.92,12,2,12,0.53
2014-8-22,90,82,74,81,77,73,94,84,66,30.00,29.90,10,2,10,0.00
2014-8-23,95,83,70,83,77,68,96,83,63,30.03,29.83,18,2,18,0.24
2014-8-24,90,80,71,81,76,70,98,86,71,29.96,29.90,10,1,10,0.00
2014-8-25,93,83,74,79,76,72,97,80,60,30.03,29.95,9,1,9,0.00
2014-8-26,94,83,73,80,76,72,98,82,61,30.08,29.99,5,0,6,0.00
2014-8-27,94,81,74,81,75,70,98,84,62,30.07,29.97,8,1,15,0.00
2014-8-28,90,79,72,79,74,70,96,85,64,30.02,29.93,10,1,10,0.00
2014-8-29,92,80,71,78,72,68,97,78,52,29.98,29.87,10,2,10,0.00
2014-8-30,77,74,71,74,71,68,97,91,76,30.01,29.93,11,3,12,1.04
2014-8-31,87,77,71,74,72,70,98,85,62,29.98,29.90,10,2,10,0.00
2014-9-1,85,78,73,76,73,71,97,84,67,29.92,29.84,21,4,21,0.00
2014-9-2,83,76,68,77,72,67,98,87,73,29.99,29.87,14,2,14,1.12
2014-9-3,87,76,65,72,68,65,99,80,53,30.05,29.95,8,1,8,0.01
2014-9-4,90,80,70,76,71,68,96,76,51,30.06,29.98,10,2,10,0.00
2014-9-5,93,80,70,80,73,68,95,80,62,30.09,29.92,13,2,15,0.34
2014-9-6,74,68,61,69,65,60,98,90,75,30.13,29.98,10,1,11,0.01
2014-9-7,78,67,57,64,58,55,97,75,49,30.17,30.06,8,2,12,0.00
2014-9-8,84,70,58,63,58,54,89,67,36,30.10,29.98,9,1,9,0.00
2014-9-9,81,72,62,71,64,57,88,75,59,30.05,29.86,10,2,11,0.00
2014-9-10,86,78,71,77,72,66,97,82,73,29.86,29.69,22,5,22,1.43
2014-9-11,71,64,58,70,61,55,97,91,82,30.18,29.81,12,2,12,0.32
2014-9-12,62,58,54,58,55,53,96,90,82,30.21,30.14,7,1,9,0.01
2014-9-13,65,55,48,54,46,42,92,72,46,30.35,30.20,9,2,13,0.00
2014-9-14,74,58,46,53,49,44,96,73,44,30.31,30.18,8,1,8,0.00
2014-9-15,74,64,52,65,57,48,96,79,58,30.19,30.03,9,1,10,0.09
2014-9-16,63,59,51,61,55,50,96,89,74,30.18,30.08,9,1,9,0.00
2014-9-17,72,59,47,58,53,47,98,82,59,30.09,29.94,11,1,11,0.01
2014-9-18,74,65,59,57,55,53,87,71,52,30.07,29.97,11,3,14,0.00
2014-9-19,79,67,56,61,56,51,84,68,44,30.11,30.00,12,3,13,0.00
2014-9-20,86,73,60,72,65,58,95,79,57,30.05,29.89,15,2,15,0.00
2014-9-21,78,70,55,69,59,51,97,72,41,30.09,29.84,17,2,17,0.23
2014-9-22,71,60,50,54,50,47,97,73,45,30.27,30.09,10,1,11,0.00
2014-9-23,74,62,50,53,49,47,90,65,40,30.33,30.22,10,2,12,0.00
2014-9-24,78,65,52,59,52,48,88,65,38,30.31,30.21,8,2,10,0.00
2014-9-25,84,70,57,64,58,54,92,67,43,30.27,30.15,6,0,6,0.00
2014-9-26,83,72,57,63,59,54,93,66,40,30.22,30.11,8,1,10,0.00
2014-9-27,84,73,62,63,59,54,88,65,38,30.18,30.06,11,2,11,0.00
2014-9-28,85,72,60,69,63,57,96,72,47,30.11,30.00,6,0,6,0.00
2014-9-29,86,71,58,64,58,54,93,67,35,30.03,29.91,7,0,8,0.00
2014-9-30,84,70,58,65,61,55,95,74,46,29.94,29.85,11,1,12,0.00
2014-10-1,88,72,59,65,61,58,95,71,39,29.95,29.84,11,3,12,0.00
2014-10-2,87,74,68,72,66,60,95,78,56,29.92,29.59,19,4,19,0.78
2014-10-3,72,59,46,68,55,39,97,86,54,29.99,29.59,20,4,23,0.58
2014-10-4,55,46,38,41,36,31,95,71,40,29.97,29.90,24,3,24,0.00
2014-10-5,71,53,37,50,43,34,92,70,40,29.92,29.68,12,2,15,0.00
2014-10-6,72,59,50,59,51,45,95,76,43,29.83,29.69,24,3,24,0.25
2014-10-7,76,63,54,64,55,48,94,76,42,29.94,29.72,22,3,22,0.11
2014-10-8,77,63,49,52,47,44,89,61,32,30.11,29.93,12,1,12,0.00
2014-10-9,73,62,56,59,54,46,91,74,57,30.11,29.97,14,2,14,0.01
2014-10-10,57,53,49,55,52,48,96,94,85,30.07,29.97,14,3,14,0.40
2014-10-11,59,53,47,51,48,44,94,85,70,30.16,30.04,13,2,13,0.00
2014-10-12,67,59,52,66,56,47,97,89,82,30.08,29.88,13,3,13,0.04
2014-10-13,77,68,64,69,65,62,97,91,72,29.88,29.57,20,7,21,1.01
2014-10-14,64,59,54,63,56,52,96,91,78,29.67,29.49,14,5,21,0.25
2014-10-15,54,53,51,54,52,50,98,97,94,29.85,29.66,8,2,13,0.29
2014-10-16,65,54,48,56,52,48,98,90,71,29.92,29.78,7,2,9,0.00
2014-10-17,73,61,53,56,51,48,94,71,42,29.92,29.72,27,3,27,0.00
2014-10-18,63,53,46,50,46,44,95,78,55,30.19,29.92,13,1,13,0.00
2014-10-19,60,51,47,48,45,43,91,81,58,30.28,30.05,7,0,7,0.00
2014-10-20,74,58,47,57,49,44,94,75,43,30.06,29.87,18,2,18,0.01
2014-10-21,65,54,44,51,46,41,96,75,51,30.19,29.98,11,1,11,0.00
2014-10-22,62,51,42,45,42,40,94,74,50,30.33,30.19,14,2,14,0.00
2014-10-23,62,51,41,48,44,40,95,77,52,30.26,30.11,10,1,10,0.00
2014-10-24,71,58,46,57,51,43,93,79,58,30.12,30.02,10,1,10,0.00
2014-10-25,81,65,54,63,56,51,95,74,43,30.02,29.96,6,1,9,0.00
2014-10-26,76,64,50,57,48,40,87,59,31,30.04,29.85,10,2,11,0.00
2014-10-27,83,71,63,64,57,50,94,65,35,29.86,29.74,25,6,25,0.00
2014-10-28,71,62,52,62,51,37,96,69,46,30.08,29.80,17,2,17,0.80
2014-10-29,60,50,41,43,38,35,87,65,43,30.16,30.07,21,1,21,0.00
2014-10-30,60,49,37,45,40,34,95,72,48,30.19,30.04,14,1,14,0.01
2014-10-31,49,43,35,46,36,25,96,75,53,30.27,30.01,21,2,21,0.05
2014-11-1,49,38,30,32,27,25,82,65,42,30.42,30.26,15,1,15,0.00
2014-11-2,54,45,30,31,27,23,81,51,31,30.50,30.30,10,3,10,0.00
2014-11-3,70,54,44,36,31,25,62,43,19,30.34,30.16,18,5,18,0.00
2014-11-4,54,52,49,52,45,35,98,80,54,30.19,30.09,14,2,14,0.69
2014-11-5,55,49,43,50,47,43,98,93,78,30.24,30.03,10,1,10,0.01
2014-11-6,52,44,35,45,39,30,98,82,66,30.26,29.95,21,2,21,0.02
2014-11-7,51,39,28,35,31,27,96,74,49,30.27,29.97,9,1,9,0.00
2014-11-8,54,42,34,44,36,30,92,79,68,30.09,29.86,15,2,15,0.00
2014-11-9,57,44,30,38,34,28,97,73,44,30.08,29.91,14,3,14,0.01
2014-11-10,66,54,43,47,41,37,81,62,43,29.92,29.66,24,7,24,0.00
2014-11-11,60,45,33,53,39,28,94,79,60,30.22,29.74,15,3,15,0.03
2014-11-12,33,31,25,28,24,20,87,77,70,30.39,30.22,10,0,10,0.00
2014-11-13,32,26,18,21,17,14,90,70,51,30.44,30.37,6,1,11,0.00
2014-11-14,34,25,16,21,17,14,94,74,51,30.48,30.41,9,0,10,0.00
2014-11-15,38,30,21,27,21,16,88,70,47,30.47,30.23,11,1,11,0.00
2014-11-16,37,33,30,31,29,27,96,86,69,30.24,29.95,7,0,7,0.00
2014-11-17,30,24,17,29,18,9,96,78,59,30.25,29.94,21,2,21,0.00
2014-11-18,27,20,12,12,10,6,80,65,50,30.38,30.24,19,4,19,0.00
2014-11-19,47,33,18,31,24,12,84,70,51,30.25,29.99,22,5,22,0.05
2014-11-20,36,26,17,20,17,14,90,71,48,30.38,30.19,13,1,13,0.00
2014-11-21,41,33,21,30,20,15,79,61,41,30.51,30.30,14,4,14,0.01
2014-11-22,64,53,39,46,40,29,77,61,50,30.31,29.95,21,6,21,0.00
2014-11-23,57,54,52,56,49,38,97,84,56,29.95,29.24,19,6,19,1.18
2014-11-24,59,45,36,57,39,30,96,81,63,30.00,29.21,30,6,30,0.21
2014-11-25,40,32,25,30,27,23,92,80,65,30.23,30.00,13,1,13,0.00
2014-11-26,38,31,22,31,28,20,97,89,74,30.19,30.02,11,2,11,0.00
2014-11-27,32,27,18,31,24,16,97,91,82,30.50,30.15,12,0,12,0.00
2014-11-28,43,33,19,34,27,18,95,80,68,30.47,30.01,19,5,19,0.21
2014-11-29,61,51,38,55,45,30,87,80,72,30.01,29.79,25,7,25,0.00
2014-11-30,69,59,38,59,53,36,95,83,67,30.23,29.82,28,6,28,0.24
2014-12-1,38,32,30,36,30,28,95,92,88,30.54,30.22,13,2,13,0.29
2014-12-2,34,32,30,33,30,27,96,94,89,30.43,30.20,15,2,15,0.03
2014-12-3,47,38,33,36,33,31,94,82,62,30.37,30.22,14,2,14,0.00
2014-12-4,40,38,36,39,36,31,97,92,82,30.38,30.20,11,2,11,0.21
2014-12-5,51,45,40,51,45,39,99,98,97,30.23,30.01,9,2,9,1.48
2014-12-6,45,41,38,45,39,32,98,90,80,30.57,30.03,18,2,18,0.25
2014-12-7,41,37,31,34,32,28,91,83,75,30.58,30.30,12,2,12,0.00
2014-12-8,48,41,34,42,37,31,91,87,75,30.30,30.13,14,2,14,0.00
2014-12-9,43,37,32,39,33,28,92,87,75,30.36,30.15,14,1,14,0.00
2014-12-10,38,35,33,34,30,28,93,82,72,30.39,30.27,13,0,13,0.00
2014-12-11,39,32,24,29,27,22,95,81,67,30.36,30.25,8,0,8,0.00
2014-12-12,44,34,23,35,30,22,97,88,70,30.44,30.33,6,1,7,0.00
2014-12-13,49,43,38,43,39,35,91,88,80,30.34,30.19,7,2,8,0.00
2014-12-14,50,46,43,48,45,41,98,95,91,30.19,30.06,12,3,12,0.00
2014-12-15,51,47,44,51,45,42,97,94,88,30.06,29.69,24,7,24,0.11
2014-12-16,49,40,33,47,36,29,93,86,82,30.27,29.73,14,4,19,0.00
2014-12-17,38,31,27,29,26,24,90,83,69,30.36,30.26,8,1,8,0.00
2014-12-18,34,30,27,28,26,24,90,85,75,30.35,30.24,5,0,6,0.00
2014-12-19,38,31,26,28,26,23,92,81,60,30.36,30.27,9,1,9,0.00
2014-12-20,38,32,28,30,28,25,91,84,71,30.34,30.27,4,1,6,0.00
2014-12-21,44,34,26,33,29,24,93,81,61,30.31,30.00,12,3,12,0.00
2014-12-22,51,44,35,50,41,30,97,89,80,30.00,29.61,19,6,19,0.09
2014-12-23,51,48,44,50,46,42,98,91,75,29.80,29.60,10,1,13,0.02
2014-12-24,45,41,38,43,39,35,97,94,89,29.87,29.59,19,3,19,0.25
2014-12-25,49,42,37,38,35,32,92,79,62,30.15,29.87,20,5,20,0.00
2014-12-26,58,46,36,46,40,34,91,79,63,30.21,30.10,17,6,17,0.00
2014-12-27,49,45,36,49,43,36,98,95,76,30.18,30.08,12,2,12,0.41
2014-12-28,36,32,26,36,29,24,97,90,84,30.26,30.15,5,0,6,0.00
2014-12-29,35,29,22,31,26,20,95,88,81,30.44,30.25,11,1,11,0.00
2014-12-30,34,27,18,26,22,12,91,80,67,30.70,30.43,15,1,15,0.00
2014-12-31,27,20,12,12,10,6,90,66,42,30.69,30.40,10,1,10,0.00
2015-1-1,40,30,20,30,22,12,86,71,54,30.40,30.20,16,3,16,0.00
2015-1-2,37,35,32,36,33,30,97,94,86,30.37,30.13,12,2,12,0.36